sensor_id;sensor_type;location;lat;lon;timestamp;P1;durP1;ratioP1;P2;durP2;ratioP2
61477;SDS011;47345;52.334;10.392;2022-11-20T00:01:40;11.30;;;7.30;;
61477;SDS011;47345;52.334;10.392;2022-11-20T00:04:11;12.60;;;7.00;;
61477;SDS011;47345;52.334;10.392;2022-11-20T00:06:41;10.30;;;6.10;;
61477;SDS011;47345;52.334;10.392;2022-11-20T00:09:12;9.70;;;6.10;;
61477;SDS011;47345;52.334;10.392;2022-11-20T00:11:43;9.40;;;6.30;;
61477;SDS011;47345;52.334;10.392;2022-11-20T00:14:14;10.60;;;6.30;;
61477;SDS011;47345;52.334;10.392;2022-11-20T00:16:45;9.30;;;6.20;;
61477;SDS011;47345;52.334;10.392;2022-11-20T00:19:15;9.80;;;6.60;;
61477;SDS011;47345;52.334;10.392;2022-11-20T00:21:47;11.40;;;6.90;;
61477;SDS011;47345;52.334;10.392;2022-11-20T00:24:19;10.40;;;5.90;;
61477;SDS011;47345;52.334;10.392;2022-11-20T00:26:49;10.20;;;5.60;;
61477;SDS011;47345;52.334;10.392;2022-11-20T00:29:20;8.40;;;6.10;;
61477;SDS011;47345;52.334;10.392;2022-11-20T00:31:50;9.60;;;6.00;;
61477;SDS011;47345;52.334;10.392;2022-11-20T00:34:21;9.10;;;6.00;;
61477;SDS011;47345;52.334;10.392;2022-11-20T00:36:51;9.50;;;6.40;;
61477;SDS011;47345;52.334;10.392;2022-11-20T00:39:23;10.80;;;6.10;;
61477;SDS011;47345;52.334;10.392;2022-11-20T00:41:53;9.50;;;5.80;;
61477;SDS011;47345;52.334;10.392;2022-11-20T00:44:24;7.40;;;5.20;;
61477;SDS011;47345;52.334;10.392;2022-11-20T00:46:54;8.20;;;4.90;;
61477;SDS011;47345;52.334;10.392;2022-11-20T00:49:25;10.50;;;6.10;;
61477;SDS011;47345;52.334;10.392;2022-11-20T00:51:56;9.50;;;5.90;;
61477;SDS011;47345;52.334;10.392;2022-11-20T00:54:27;8.10;;;5.90;;
61477;SDS011;47345;52.334;10.392;2022-11-20T00:56:58;9.40;;;5.60;;
61477;SDS011;47345;52.334;10.392;2022-11-20T00:59:29;6.80;;;5.40;;
61477;SDS011;47345;52.334;10.392;2022-11-20T01:01:59;9.70;;;6.20;;
61477;SDS011;47345;52.334;10.392;2022-11-20T01:04:30;9.30;;;5.90;;
61477;SDS011;47345;52.334;10.392;2022-11-20T01:07:01;8.60;;;5.50;;
61477;SDS011;47345;52.334;10.392;2022-11-20T01:09:32;8.70;;;5.10;;
61477;SDS011;47345;52.334;10.392;2022-11-20T01:12:03;8.70;;;6.40;;
61477;SDS011;47345;52.334;10.392;2022-11-20T01:14:35;9.50;;;6.10;;
61477;SDS011;47345;52.334;10.392;2022-11-20T01:17:06;8.20;;;5.50;;
61477;SDS011;47345;52.334;10.392;2022-11-20T01:19:37;9.00;;;6.00;;
61477;SDS011;47345;52.334;10.392;2022-11-20T01:22:07;7.20;;;5.80;;
61477;SDS011;47345;52.334;10.392;2022-11-20T01:24:38;6.70;;;4.80;;
61477;SDS011;47345;52.334;10.392;2022-11-20T01:27:08;7.30;;;5.10;;
61477;SDS011;47345;52.334;10.392;2022-11-20T01:29:39;8.50;;;5.00;;
61477;SDS011;47345;52.334;10.392;2022-11-20T01:32:09;12.60;;;6.30;;
61477;SDS011;47345;52.334;10.392;2022-11-20T01:34:39;8.20;;;6.00;;
61477;SDS011;47345;52.334;10.392;2022-11-20T01:37:10;11.00;;;6.40;;
61477;SDS011;47345;52.334;10.392;2022-11-20T01:39:40;9.20;;;5.50;;
61477;SDS011;47345;52.334;10.392;2022-11-20T01:42:11;8.10;;;5.70;;
61477;SDS011;47345;52.334;10.392;2022-11-20T01:44:59;7.90;;;5.30;;
61477;SDS011;47345;52.334;10.392;2022-11-20T01:47:31;7.10;;;5.30;;
61477;SDS011;47345;52.334;10.392;2022-11-20T01:50:06;8.80;;;5.20;;
61477;SDS011;47345;52.334;10.392;2022-11-20T01:55:17;7.20;;;4.80;;
61477;SDS011;47345;52.334;10.392;2022-11-20T01:57:50;9.10;;;5.60;;
61477;SDS011;47345;52.334;10.392;2022-11-20T02:00:21;8.80;;;5.50;;
61477;SDS011;47345;52.334;10.392;2022-11-20T02:02:53;7.50;;;5.30;;
61477;SDS011;47345;52.334;10.392;2022-11-20T02:05:29;6.50;;;4.90;;
61477;SDS011;47345;52.334;10.392;2022-11-20T02:08:04;7.20;;;5.10;;
61477;SDS011;47345;52.334;10.392;2022-11-20T02:10:35;8.90;;;5.30;;
61477;SDS011;47345;52.334;10.392;2022-11-20T02:13:06;7.30;;;5.10;;
61477;SDS011;47345;52.334;10.392;2022-11-20T02:15:54;7.80;;;5.00;;
61477;SDS011;47345;52.334;10.392;2022-11-20T02:18:25;9.20;;;5.70;;
61477;SDS011;47345;52.334;10.392;2022-11-20T02:20:58;6.20;;;4.90;;
61477;SDS011;47345;52.334;10.392;2022-11-20T02:23:36;8.10;;;5.00;;
61477;SDS011;47345;52.334;10.392;2022-11-20T02:26:12;6.70;;;5.00;;
61477;SDS011;47345;52.334;10.392;2022-11-20T02:28:45;7.90;;;5.30;;
61477;SDS011;47345;52.334;10.392;2022-11-20T02:31:15;9.70;;;5.20;;
61477;SDS011;47345;52.334;10.392;2022-11-20T02:33:45;7.60;;;5.00;;
61477;SDS011;47345;52.334;10.392;2022-11-20T02:36:16;7.30;;;4.90;;
61477;SDS011;47345;52.334;10.392;2022-11-20T02:38:46;7.20;;;5.10;;
61477;SDS011;47345;52.334;10.392;2022-11-20T02:41:18;7.90;;;5.00;;
61477;SDS011;47345;52.334;10.392;2022-11-20T02:43:48;7.20;;;5.40;;
61477;SDS011;47345;52.334;10.392;2022-11-20T02:46:18;7.80;;;4.90;;
61477;SDS011;47345;52.334;10.392;2022-11-20T02:48:49;7.10;;;5.40;;
61477;SDS011;47345;52.334;10.392;2022-11-20T02:51:19;5.80;;;4.30;;
61477;SDS011;47345;52.334;10.392;2022-11-20T02:53:50;7.00;;;5.00;;
61477;SDS011;47345;52.334;10.392;2022-11-20T02:56:20;7.90;;;5.50;;
61477;SDS011;47345;52.334;10.392;2022-11-20T02:58:51;7.00;;;4.90;;
61477;SDS011;47345;52.334;10.392;2022-11-20T03:01:21;7.60;;;4.80;;
61477;SDS011;47345;52.334;10.392;2022-11-20T03:03:52;7.30;;;4.50;;
61477;SDS011;47345;52.334;10.392;2022-11-20T03:06:23;7.10;;;5.00;;
61477;SDS011;47345;52.334;10.392;2022-11-20T03:08:53;7.00;;;4.70;;
61477;SDS011;47345;52.334;10.392;2022-11-20T03:11:24;8.00;;;5.50;;
61477;SDS011;47345;52.334;10.392;2022-11-20T03:13:55;5.80;;;4.80;;
61477;SDS011;47345;52.334;10.392;2022-11-20T03:16:26;5.70;;;4.00;;
61477;SDS011;47345;52.334;10.392;2022-11-20T03:18:56;6.70;;;5.50;;
61477;SDS011;47345;52.334;10.392;2022-11-20T03:21:27;8.20;;;4.90;;
61477;SDS011;47345;52.334;10.392;2022-11-20T03:23:58;6.20;;;4.80;;
61477;SDS011;47345;52.334;10.392;2022-11-20T03:26:28;6.30;;;4.20;;
61477;SDS011;47345;52.334;10.392;2022-11-20T03:29:00;8.20;;;5.20;;
61477;SDS011;47345;52.334;10.392;2022-11-20T03:31:33;7.60;;;5.10;;
61477;SDS011;47345;52.334;10.392;2022-11-20T03:34:04;10.10;;;5.00;;
61477;SDS011;47345;52.334;10.392;2022-11-20T03:36:35;7.50;;;4.90;;
61477;SDS011;47345;52.334;10.392;2022-11-20T03:39:07;7.20;;;4.90;;
61477;SDS011;47345;52.334;10.392;2022-11-20T03:41:39;8.30;;;5.10;;
61477;SDS011;47345;52.334;10.392;2022-11-20T03:44:11;6.30;;;4.30;;
61477;SDS011;47345;52.334;10.392;2022-11-20T03:46:42;6.80;;;4.60;;
61477;SDS011;47345;52.334;10.392;2022-11-20T03:49:12;5.40;;;3.50;;
61477;SDS011;47345;52.334;10.392;2022-11-20T03:51:43;6.00;;;4.50;;
61477;SDS011;47345;52.334;10.392;2022-11-20T03:54:15;6.30;;;4.40;;
61477;SDS011;47345;52.334;10.392;2022-11-20T03:56:46;7.50;;;4.40;;
61477;SDS011;47345;52.334;10.392;2022-11-20T03:59:16;8.50;;;5.10;;
61477;SDS011;47345;52.334;10.392;2022-11-20T04:01:48;5.40;;;4.20;;
61477;SDS011;47345;52.334;10.392;2022-11-20T04:04:18;6.50;;;4.20;;
61477;SDS011;47345;52.334;10.392;2022-11-20T04:06:49;8.80;;;4.50;;
61477;SDS011;47345;52.334;10.392;2022-11-20T04:09:20;5.40;;;4.10;;
61477;SDS011;47345;52.334;10.392;2022-11-20T04:11:51;4.30;;;3.90;;
61477;SDS011;47345;52.334;10.392;2022-11-20T04:14:22;10.50;;;5.40;;
61477;SDS011;47345;52.334;10.392;2022-11-20T04:16:52;7.20;;;4.80;;
61477;SDS011;47345;52.334;10.392;2022-11-20T04:19:22;6.50;;;4.40;;
61477;SDS011;47345;52.334;10.392;2022-11-20T04:21:54;8.40;;;4.00;;
61477;SDS011;47345;52.334;10.392;2022-11-20T04:24:24;5.80;;;4.50;;
61477;SDS011;47345;52.334;10.392;2022-11-20T04:26:55;8.60;;;5.10;;
61477;SDS011;47345;52.334;10.392;2022-11-20T04:29:26;6.00;;;4.20;;
61477;SDS011;47345;52.334;10.392;2022-11-20T04:31:56;7.80;;;4.70;;
61477;SDS011;47345;52.334;10.392;2022-11-20T04:34:27;6.80;;;4.70;;
61477;SDS011;47345;52.334;10.392;2022-11-20T04:36:58;6.40;;;5.00;;
61477;SDS011;47345;52.334;10.392;2022-11-20T04:39:28;7.00;;;4.80;;
61477;SDS011;47345;52.334;10.392;2022-11-20T04:41:59;7.30;;;4.60;;
61477;SDS011;47345;52.334;10.392;2022-11-20T04:47:15;6.80;;;5.10;;
61477;SDS011;47345;52.334;10.392;2022-11-20T04:49:46;6.70;;;4.40;;
61477;SDS011;47345;52.334;10.392;2022-11-20T04:52:17;8.80;;;5.00;;
61477;SDS011;47345;52.334;10.392;2022-11-20T04:54:47;8.60;;;4.90;;
61477;SDS011;47345;52.334;10.392;2022-11-20T04:57:20;9.20;;;5.40;;
61477;SDS011;47345;52.334;10.392;2022-11-20T04:59:51;8.60;;;4.60;;
61477;SDS011;47345;52.334;10.392;2022-11-20T05:02:23;6.10;;;4.60;;
61477;SDS011;47345;52.334;10.392;2022-11-20T05:04:58;5.80;;;4.20;;
61477;SDS011;47345;52.334;10.392;2022-11-20T05:07:32;7.90;;;4.90;;
61477;SDS011;47345;52.334;10.392;2022-11-20T05:10:13;8.90;;;4.80;;
61477;SDS011;47345;52.334;10.392;2022-11-20T05:12:48;6.10;;;4.40;;
61477;SDS011;47345;52.334;10.392;2022-11-20T05:15:28;8.10;;;4.90;;
61477;SDS011;47345;52.334;10.392;2022-11-20T05:18:02;7.30;;;4.60;;
61477;SDS011;47345;52.334;10.392;2022-11-20T05:20:34;7.00;;;4.60;;
61477;SDS011;47345;52.334;10.392;2022-11-20T05:23:08;8.00;;;5.10;;
61477;SDS011;47345;52.334;10.392;2022-11-20T05:25:43;8.10;;;5.10;;
61477;SDS011;47345;52.334;10.392;2022-11-20T05:28:27;9.40;;;4.80;;
61477;SDS011;47345;52.334;10.392;2022-11-20T05:31:06;6.60;;;4.60;;
61477;SDS011;47345;52.334;10.392;2022-11-20T05:33:44;8.70;;;4.40;;
61477;SDS011;47345;52.334;10.392;2022-11-20T05:36:19;6.20;;;4.90;;
61477;SDS011;47345;52.334;10.392;2022-11-20T05:38:55;7.20;;;4.90;;
61477;SDS011;47345;52.334;10.392;2022-11-20T05:41:32;5.60;;;4.60;;
61477;SDS011;47345;52.334;10.392;2022-11-20T05:44:09;6.70;;;4.60;;
61477;SDS011;47345;52.334;10.392;2022-11-20T05:46:45;6.40;;;4.70;;
61477;SDS011;47345;52.334;10.392;2022-11-20T05:49:30;5.90;;;4.40;;
61477;SDS011;47345;52.334;10.392;2022-11-20T05:52:06;5.70;;;4.40;;
61477;SDS011;47345;52.334;10.392;2022-11-20T05:54:41;6.30;;;4.20;;
61477;SDS011;47345;52.334;10.392;2022-11-20T05:57:17;6.20;;;4.60;;
61477;SDS011;47345;52.334;10.392;2022-11-20T05:59:54;5.90;;;4.40;;
61477;SDS011;47345;52.334;10.392;2022-11-20T06:02:28;6.90;;;4.60;;
61477;SDS011;47345;52.334;10.392;2022-11-20T06:05:03;7.60;;;4.90;;
61477;SDS011;47345;52.334;10.392;2022-11-20T06:07:38;5.80;;;4.40;;
61477;SDS011;47345;52.334;10.392;2022-11-20T06:10:19;9.30;;;4.50;;
61477;SDS011;47345;52.334;10.392;2022-11-20T06:12:55;5.40;;;4.40;;
61477;SDS011;47345;52.334;10.392;2022-11-20T06:15:29;6.30;;;4.70;;
61477;SDS011;47345;52.334;10.392;2022-11-20T06:18:05;7.30;;;4.80;;
61477;SDS011;47345;52.334;10.392;2022-11-20T06:20:49;5.40;;;4.60;;
61477;SDS011;47345;52.334;10.392;2022-11-20T06:23:29;6.10;;;4.60;;
61477;SDS011;47345;52.334;10.392;2022-11-20T06:26:10;6.80;;;4.50;;
61477;SDS011;47345;52.334;10.392;2022-11-20T06:28:45;9.10;;;4.80;;
61477;SDS011;47345;52.334;10.392;2022-11-20T06:31:21;6.90;;;4.80;;
61477;SDS011;47345;52.334;10.392;2022-11-20T06:33:57;7.60;;;5.70;;
61477;SDS011;47345;52.334;10.392;2022-11-20T06:36:30;14.00;;;7.00;;
61477;SDS011;47345;52.334;10.392;2022-11-20T06:39:03;9.00;;;5.70;;
61477;SDS011;47345;52.334;10.392;2022-11-20T06:41:38;6.30;;;4.90;;
61477;SDS011;47345;52.334;10.392;2022-11-20T06:44:15;7.80;;;4.70;;
61477;SDS011;47345;52.334;10.392;2022-11-20T06:46:53;5.60;;;3.90;;
61477;SDS011;47345;52.334;10.392;2022-11-20T06:49:32;6.60;;;4.80;;
61477;SDS011;47345;52.334;10.392;2022-11-20T06:52:09;8.50;;;4.90;;
61477;SDS011;47345;52.334;10.392;2022-11-20T06:54:46;6.50;;;4.60;;
61477;SDS011;47345;52.334;10.392;2022-11-20T06:57:23;6.50;;;5.00;;
61477;SDS011;47345;52.334;10.392;2022-11-20T06:59:57;7.00;;;4.70;;
61477;SDS011;47345;52.334;10.392;2022-11-20T07:02:31;6.10;;;4.40;;
61477;SDS011;47345;52.334;10.392;2022-11-20T07:05:08;6.20;;;4.50;;
61477;SDS011;47345;52.334;10.392;2022-11-20T07:07:44;6.60;;;4.70;;
61477;SDS011;47345;52.334;10.392;2022-11-20T07:10:20;5.90;;;4.40;;
61477;SDS011;47345;52.334;10.392;2022-11-20T07:12:53;6.10;;;4.50;;
61477;SDS011;47345;52.334;10.392;2022-11-20T07:15:27;5.80;;;4.40;;
61477;SDS011;47345;52.334;10.392;2022-11-20T07:18:01;7.30;;;4.60;;
61477;SDS011;47345;52.334;10.392;2022-11-20T07:20:40;5.50;;;4.50;;
61477;SDS011;47345;52.334;10.392;2022-11-20T07:23:14;5.50;;;4.30;;
61477;SDS011;47345;52.334;10.392;2022-11-20T07:25:47;12.80;;;9.10;;
61477;SDS011;47345;52.334;10.392;2022-11-20T07:28:23;8.00;;;4.80;;
61477;SDS011;47345;52.334;10.392;2022-11-20T07:30:56;7.40;;;4.60;;
61477;SDS011;47345;52.334;10.392;2022-11-20T07:33:31;6.30;;;4.50;;
61477;SDS011;47345;52.334;10.392;2022-11-20T07:36:11;8.00;;;5.10;;
61477;SDS011;47345;52.334;10.392;2022-11-20T07:38:56;9.00;;;4.90;;
61477;SDS011;47345;52.334;10.392;2022-11-20T07:41:29;5.90;;;4.40;;
61477;SDS011;47345;52.334;10.392;2022-11-20T07:44:03;6.60;;;4.80;;
61477;SDS011;47345;52.334;10.392;2022-11-20T07:46:39;6.50;;;4.80;;
61477;SDS011;47345;52.334;10.392;2022-11-20T07:49:12;8.70;;;5.30;;
61477;SDS011;47345;52.334;10.392;2022-11-20T07:51:45;8.20;;;5.70;;
61477;SDS011;47345;52.334;10.392;2022-11-20T07:54:23;7.60;;;4.70;;
61477;SDS011;47345;52.334;10.392;2022-11-20T07:57:02;5.90;;;4.50;;
61477;SDS011;47345;52.334;10.392;2022-11-20T07:59:35;5.50;;;4.20;;
61477;SDS011;47345;52.334;10.392;2022-11-20T08:02:11;7.10;;;4.60;;
61477;SDS011;47345;52.334;10.392;2022-11-20T08:04:46;7.40;;;4.70;;
61477;SDS011;47345;52.334;10.392;2022-11-20T08:07:20;5.90;;;4.50;;
61477;SDS011;47345;52.334;10.392;2022-11-20T08:09:56;6.20;;;4.40;;
61477;SDS011;47345;52.334;10.392;2022-11-20T08:12:31;8.80;;;5.00;;
61477;SDS011;47345;52.334;10.392;2022-11-20T08:15:23;5.60;;;4.20;;
61477;SDS011;47345;52.334;10.392;2022-11-20T08:18:12;6.40;;;4.40;;
61477;SDS011;47345;52.334;10.392;2022-11-20T08:21:03;8.40;;;4.40;;
61477;SDS011;47345;52.334;10.392;2022-11-20T08:23:42;6.90;;;5.00;;
61477;SDS011;47345;52.334;10.392;2022-11-20T08:29:02;5.80;;;4.40;;
61477;SDS011;47345;52.334;10.392;2022-11-20T08:31:39;5.80;;;4.50;;
61477;SDS011;47345;52.334;10.392;2022-11-20T08:34:15;7.50;;;5.10;;
61477;SDS011;47345;52.334;10.392;2022-11-20T08:36:50;12.20;;;7.70;;
61477;SDS011;47345;52.334;10.392;2022-11-20T08:39:26;9.00;;;5.80;;
61477;SDS011;47345;52.334;10.392;2022-11-20T08:41:59;7.50;;;4.90;;
61477;SDS011;47345;52.334;10.392;2022-11-20T08:44:33;7.30;;;5.30;;
61477;SDS011;47345;52.334;10.392;2022-11-20T08:47:06;8.40;;;5.90;;
61477;SDS011;47345;52.334;10.392;2022-11-20T08:49:44;9.50;;;5.70;;
61477;SDS011;47345;52.334;10.392;2022-11-20T08:52:28;6.50;;;4.70;;
61477;SDS011;47345;52.334;10.392;2022-11-20T08:55:11;6.00;;;4.70;;
61477;SDS011;47345;52.334;10.392;2022-11-20T08:57:45;8.60;;;5.20;;
61477;SDS011;47345;52.334;10.392;2022-11-20T09:00:21;8.60;;;5.80;;
61477;SDS011;47345;52.334;10.392;2022-11-20T09:02:55;8.70;;;5.10;;
61477;SDS011;47345;52.334;10.392;2022-11-20T09:05:32;6.40;;;4.70;;
61477;SDS011;47345;52.334;10.392;2022-11-20T09:08:06;5.90;;;4.10;;
61477;SDS011;47345;52.334;10.392;2022-11-20T09:10:44;6.90;;;5.20;;
61477;SDS011;47345;52.334;10.392;2022-11-20T09:13:25;6.60;;;4.70;;
61477;SDS011;47345;52.334;10.392;2022-11-20T09:16:00;6.60;;;4.50;;
61477;SDS011;47345;52.334;10.392;2022-11-20T09:18:36;6.60;;;4.70;;
61477;SDS011;47345;52.334;10.392;2022-11-20T09:21:11;6.80;;;4.40;;
61477;SDS011;47345;52.334;10.392;2022-11-20T09:26:24;6.50;;;4.60;;
61477;SDS011;47345;52.334;10.392;2022-11-20T09:29:01;8.10;;;5.50;;
61477;SDS011;47345;52.334;10.392;2022-11-20T09:31:35;7.20;;;5.10;;
61477;SDS011;47345;52.334;10.392;2022-11-20T09:34:08;6.80;;;4.80;;
61477;SDS011;47345;52.334;10.392;2022-11-20T09:36:40;6.40;;;4.50;;
61477;SDS011;47345;52.334;10.392;2022-11-20T09:39:14;6.40;;;4.20;;
61477;SDS011;47345;52.334;10.392;2022-11-20T09:41:59;7.20;;;4.70;;
61477;SDS011;47345;52.334;10.392;2022-11-20T09:50:58;7.80;;;5.20;;
61477;SDS011;47345;52.334;10.392;2022-11-20T09:53:44;6.70;;;4.40;;
61477;SDS011;47345;52.334;10.392;2022-11-20T09:56:28;7.30;;;4.80;;
61477;SDS011;47345;52.334;10.392;2022-11-20T09:59:04;7.80;;;5.40;;
61477;SDS011;47345;52.334;10.392;2022-11-20T10:01:48;6.40;;;4.60;;
61477;SDS011;47345;52.334;10.392;2022-11-20T10:04:25;6.80;;;4.30;;
61477;SDS011;47345;52.334;10.392;2022-11-20T10:07:11;6.60;;;4.90;;
61477;SDS011;47345;52.334;10.392;2022-11-20T10:10:13;7.10;;;5.00;;
61477;SDS011;47345;52.334;10.392;2022-11-20T10:12:55;6.00;;;4.50;;
61477;SDS011;47345;52.334;10.392;2022-11-20T10:15:41;5.90;;;4.30;;
61477;SDS011;47345;52.334;10.392;2022-11-20T10:18:27;10.10;;;5.00;;
61477;SDS011;47345;52.334;10.392;2022-11-20T10:21:13;8.10;;;4.90;;
61477;SDS011;47345;52.334;10.392;2022-11-20T10:27:27;6.60;;;4.50;;
61477;SDS011;47345;52.334;10.392;2022-11-20T10:30:10;6.60;;;4.40;;
61477;SDS011;47345;52.334;10.392;2022-11-20T10:32:45;6.00;;;4.40;;
61477;SDS011;47345;52.334;10.392;2022-11-20T10:35:22;5.80;;;4.40;;
61477;SDS011;47345;52.334;10.392;2022-11-20T10:38:05;5.70;;;3.80;;
61477;SDS011;47345;52.334;10.392;2022-11-20T10:40:59;6.50;;;4.20;;
61477;SDS011;47345;52.334;10.392;2022-11-20T10:44:03;6.40;;;4.20;;
61477;SDS011;47345;52.334;10.392;2022-11-20T10:46:44;6.20;;;4.30;;
61477;SDS011;47345;52.334;10.392;2022-11-20T10:49:22;6.30;;;4.10;;
61477;SDS011;47345;52.334;10.392;2022-11-20T10:51:56;8.70;;;4.80;;
61477;SDS011;47345;52.334;10.392;2022-11-20T10:54:42;6.60;;;4.40;;
61477;SDS011;47345;52.334;10.392;2022-11-20T10:57:31;7.40;;;4.80;;
61477;SDS011;47345;52.334;10.392;2022-11-20T11:00:24;6.80;;;4.80;;
61477;SDS011;47345;52.334;10.392;2022-11-20T11:03:07;6.80;;;4.90;;
61477;SDS011;47345;52.334;10.392;2022-11-20T11:06:01;6.40;;;4.20;;
61477;SDS011;47345;52.334;10.392;2022-11-20T11:08:53;9.50;;;5.60;;
61477;SDS011;47345;52.334;10.392;2022-11-20T11:11:32;8.20;;;5.20;;
61477;SDS011;47345;52.334;10.392;2022-11-20T11:14:12;8.30;;;4.80;;
61477;SDS011;47345;52.334;10.392;2022-11-20T11:16:50;7.20;;;4.40;;
61477;SDS011;47345;52.334;10.392;2022-11-20T11:19:31;8.20;;;3.90;;
61477;SDS011;47345;52.334;10.392;2022-11-20T11:22:06;7.60;;;4.80;;
61477;SDS011;47345;52.334;10.392;2022-11-20T11:24:55;5.40;;;3.80;;
61477;SDS011;47345;52.334;10.392;2022-11-20T11:27:33;5.20;;;3.70;;
61477;SDS011;47345;52.334;10.392;2022-11-20T11:30:19;5.90;;;4.20;;
61477;SDS011;47345;52.334;10.392;2022-11-20T11:33:09;7.90;;;4.20;;
61477;SDS011;47345;52.334;10.392;2022-11-20T11:35:52;6.80;;;4.70;;
61477;SDS011;47345;52.334;10.392;2022-11-20T11:38:34;6.70;;;4.40;;
61477;SDS011;47345;52.334;10.392;2022-11-20T11:41:15;8.30;;;4.50;;
61477;SDS011;47345;52.334;10.392;2022-11-20T11:44:03;5.80;;;3.80;;
61477;SDS011;47345;52.334;10.392;2022-11-20T11:47:08;6.40;;;4.60;;
61477;SDS011;47345;52.334;10.392;2022-11-20T11:50:02;6.30;;;4.20;;
61477;SDS011;47345;52.334;10.392;2022-11-20T11:52:48;7.40;;;4.30;;
61477;SDS011;47345;52.334;10.392;2022-11-20T11:55:37;5.70;;;4.00;;
61477;SDS011;47345;52.334;10.392;2022-11-20T11:58:20;6.00;;;4.60;;
61477;SDS011;47345;52.334;10.392;2022-11-20T12:01:17;6.40;;;4.30;;
61477;SDS011;47345;52.334;10.392;2022-11-20T12:04:02;6.40;;;4.40;;
61477;SDS011;47345;52.334;10.392;2022-11-20T12:06:45;5.90;;;3.90;;
61477;SDS011;47345;52.334;10.392;2022-11-20T12:09:32;9.70;;;4.60;;
61477;SDS011;47345;52.334;10.392;2022-11-20T12:12:17;8.00;;;4.30;;
61477;SDS011;47345;52.334;10.392;2022-11-20T12:14:53;4.60;;;3.50;;
61477;SDS011;47345;52.334;10.392;2022-11-20T12:17:29;5.90;;;4.10;;
61477;SDS011;47345;52.334;10.392;2022-11-20T12:20:05;5.70;;;4.00;;
61477;SDS011;47345;52.334;10.392;2022-11-20T12:22:48;5.50;;;4.30;;
61477;SDS011;47345;52.334;10.392;2022-11-20T12:25:27;5.00;;;4.00;;
61477;SDS011;47345;52.334;10.392;2022-11-20T12:34:22;6.80;;;4.10;;
61477;SDS011;47345;52.334;10.392;2022-11-20T12:37:13;5.40;;;3.80;;
61477;SDS011;47345;52.334;10.392;2022-11-20T12:39:58;7.00;;;4.50;;
61477;SDS011;47345;52.334;10.392;2022-11-20T12:42:45;5.20;;;3.70;;
61477;SDS011;47345;52.334;10.392;2022-11-20T12:45:46;4.50;;;3.10;;
61477;SDS011;47345;52.334;10.392;2022-11-20T12:48:43;6.20;;;3.40;;
61477;SDS011;47345;52.334;10.392;2022-11-20T12:51:42;4.20;;;3.30;;
61477;SDS011;47345;52.334;10.392;2022-11-20T12:54:36;4.70;;;3.80;;
61477;SDS011;47345;52.334;10.392;2022-11-20T12:57:18;7.30;;;3.90;;
61477;SDS011;47345;52.334;10.392;2022-11-20T13:06:08;6.00;;;3.90;;
61477;SDS011;47345;52.334;10.392;2022-11-20T13:08:52;4.70;;;3.90;;
61477;SDS011;47345;52.334;10.392;2022-11-20T13:11:43;4.20;;;3.20;;
61477;SDS011;47345;52.334;10.392;2022-11-20T13:14:23;4.50;;;3.10;;
61477;SDS011;47345;52.334;10.392;2022-11-20T13:17:04;6.50;;;4.20;;
61477;SDS011;47345;52.334;10.392;2022-11-20T13:19:42;7.80;;;4.30;;
61477;SDS011;47345;52.334;10.392;2022-11-20T13:22:42;4.70;;;3.60;;
61477;SDS011;47345;52.334;10.392;2022-11-20T13:25:24;6.70;;;4.00;;
61477;SDS011;47345;52.334;10.392;2022-11-20T13:28:03;3.70;;;3.20;;
61477;SDS011;47345;52.334;10.392;2022-11-20T13:30:57;7.20;;;4.10;;
61477;SDS011;47345;52.334;10.392;2022-11-20T13:33:32;6.60;;;4.20;;
61477;SDS011;47345;52.334;10.392;2022-11-20T13:36:07;5.70;;;4.40;;
61477;SDS011;47345;52.334;10.392;2022-11-20T13:38:54;6.00;;;4.20;;
61477;SDS011;47345;52.334;10.392;2022-11-20T13:41:28;6.30;;;4.10;;
61477;SDS011;47345;52.334;10.392;2022-11-20T13:44:12;5.60;;;4.30;;
61477;SDS011;47345;52.334;10.392;2022-11-20T13:46:53;5.80;;;3.60;;
61477;SDS011;47345;52.334;10.392;2022-11-20T13:49:37;6.70;;;4.60;;
61477;SDS011;47345;52.334;10.392;2022-11-20T13:52:26;6.30;;;4.40;;
61477;SDS011;47345;52.334;10.392;2022-11-20T13:55:18;6.90;;;3.90;;
61477;SDS011;47345;52.334;10.392;2022-11-20T13:58:05;6.60;;;4.40;;
61477;SDS011;47345;52.334;10.392;2022-11-20T14:03:34;5.00;;;3.70;;
61477;SDS011;47345;52.334;10.392;2022-11-20T14:06:31;7.10;;;4.40;;
61477;SDS011;47345;52.334;10.392;2022-11-20T14:11:49;10.10;;;4.80;;
61477;SDS011;47345;52.334;10.392;2022-11-20T14:14:22;5.10;;;4.20;;
61477;SDS011;47345;52.334;10.392;2022-11-20T14:17:08;6.30;;;4.10;;
61477;SDS011;47345;52.334;10.392;2022-11-20T14:22:26;5.30;;;3.80;;
61477;SDS011;47345;52.334;10.392;2022-11-20T14:25:05;6.30;;;4.40;;
61477;SDS011;47345;52.334;10.392;2022-11-20T14:27:53;8.00;;;5.40;;
61477;SDS011;47345;52.334;10.392;2022-11-20T14:30:28;6.50;;;4.70;;
61477;SDS011;47345;52.334;10.392;2022-11-20T14:33:14;6.40;;;4.40;;
61477;SDS011;47345;52.334;10.392;2022-11-20T14:35:52;5.60;;;4.40;;
61477;SDS011;47345;52.334;10.392;2022-11-20T14:38:28;7.50;;;5.00;;
61477;SDS011;47345;52.334;10.392;2022-11-20T14:41:16;6.30;;;4.80;;
61477;SDS011;47345;52.334;10.392;2022-11-20T14:43:51;7.90;;;4.60;;
61477;SDS011;47345;52.334;10.392;2022-11-20T14:46:28;7.40;;;4.60;;
61477;SDS011;47345;52.334;10.392;2022-11-20T14:49:02;6.40;;;4.00;;
61477;SDS011;47345;52.334;10.392;2022-11-20T14:51:38;6.80;;;4.90;;
61477;SDS011;47345;52.334;10.392;2022-11-20T14:54:14;5.60;;;3.80;;
61477;SDS011;47345;52.334;10.392;2022-11-20T14:56:54;8.10;;;4.90;;
61477;SDS011;47345;52.334;10.392;2022-11-20T14:59:28;5.40;;;4.10;;
61477;SDS011;47345;52.334;10.392;2022-11-20T15:02:05;5.70;;;4.60;;
61477;SDS011;47345;52.334;10.392;2022-11-20T15:04:47;7.30;;;4.40;;
61477;SDS011;47345;52.334;10.392;2022-11-20T15:07:31;5.60;;;3.70;;
61477;SDS011;47345;52.334;10.392;2022-11-20T15:10:07;8.30;;;5.30;;
61477;SDS011;47345;52.334;10.392;2022-11-20T15:12:45;7.40;;;4.80;;
61477;SDS011;47345;52.334;10.392;2022-11-20T15:15:19;8.40;;;5.40;;
61477;SDS011;47345;52.334;10.392;2022-11-20T15:17:56;7.90;;;5.20;;
61477;SDS011;47345;52.334;10.392;2022-11-20T15:20:27;7.90;;;5.10;;
61477;SDS011;47345;52.334;10.392;2022-11-20T15:23:01;8.40;;;5.60;;
61477;SDS011;47345;52.334;10.392;2022-11-20T15:25:40;10.60;;;4.70;;
61477;SDS011;47345;52.334;10.392;2022-11-20T15:28:17;6.90;;;5.40;;
61477;SDS011;47345;52.334;10.392;2022-11-20T15:33:21;7.70;;;4.60;;
61477;SDS011;47345;52.334;10.392;2022-11-20T15:35:55;7.00;;;5.40;;
61477;SDS011;47345;52.334;10.392;2022-11-20T15:38:28;10.00;;;5.00;;
61477;SDS011;47345;52.334;10.392;2022-11-20T15:41:01;11.30;;;5.90;;
61477;SDS011;47345;52.334;10.392;2022-11-20T15:43:34;10.30;;;6.30;;
61477;SDS011;47345;52.334;10.392;2022-11-20T15:46:09;10.10;;;6.20;;
61477;SDS011;47345;52.334;10.392;2022-11-20T15:48:52;9.30;;;5.70;;
61477;SDS011;47345;52.334;10.392;2022-11-20T15:51:31;10.40;;;6.30;;
61477;SDS011;47345;52.334;10.392;2022-11-20T15:54:07;9.40;;;5.90;;
61477;SDS011;47345;52.334;10.392;2022-11-20T15:56:44;8.90;;;5.80;;
61477;SDS011;47345;52.334;10.392;2022-11-20T15:59:19;8.90;;;6.00;;
61477;SDS011;47345;52.334;10.392;2022-11-20T16:01:53;11.30;;;6.80;;
61477;SDS011;47345;52.334;10.392;2022-11-20T16:04:33;11.90;;;6.90;;
61477;SDS011;47345;52.334;10.392;2022-11-20T16:07:07;12.60;;;7.50;;
61477;SDS011;47345;52.334;10.392;2022-11-20T16:09:39;11.10;;;7.20;;
61477;SDS011;47345;52.334;10.392;2022-11-20T16:12:15;14.90;;;6.10;;
61477;SDS011;47345;52.334;10.392;2022-11-20T16:15:00;10.30;;;5.50;;